createdAt,value
2022-08-17T00:00:43.099Z,4.40
2022-08-17T00:03:17.188Z,4.25
2022-08-17T00:05:48.990Z,4.90
2022-08-17T00:08:18.042Z,4.12
2022-08-17T00:10:46.330Z,3.87
2022-08-17T00:13:32.073Z,4.65
2022-08-17T00:16:02.593Z,4.43
2022-08-17T00:19:01.382Z,4.28
2022-08-17T00:21:23.901Z,4.87
2022-08-17T00:23:53.235Z,5.00
2022-08-17T00:26:43.643Z,5.22
2022-08-17T00:29:09.165Z,4.97
2022-08-17T00:31:37.540Z,4.28
2022-08-17T00:34:05.821Z,4.68
2022-08-17T00:36:33.597Z,4.85
2022-08-17T00:39:01.428Z,4.40
2022-08-17T00:41:31.558Z,5.12
2022-08-17T00:44:01.797Z,5.20
2022-08-17T00:46:32.568Z,5.00
2022-08-17T00:49:00.760Z,4.95
2022-08-17T00:51:31.347Z,4.97
2022-08-17T00:54:20.419Z,4.93
2022-08-17T00:56:53.232Z,5.60
2022-08-17T00:59:22.976Z,4.70
2022-08-17T01:01:51.162Z,4.68
2022-08-17T01:04:19.566Z,5.80
2022-08-17T01:06:50.596Z,4.97
2022-08-17T01:09:21.731Z,5.03
2022-08-17T01:11:53.381Z,5.20
2022-08-17T01:14:24.937Z,5.62
2022-08-17T01:16:57.436Z,5.32
2022-08-17T01:19:35.354Z,4.60
2022-08-17T01:22:12.074Z,4.97
2022-08-17T01:24:46.011Z,4.90
2022-08-17T01:27:14.808Z,5.05
2022-08-17T01:29:53.145Z,5.00
2022-08-17T01:32:23.179Z,4.62
2022-08-17T01:34:51.513Z,5.00
2022-08-17T01:37:22.702Z,4.60
2022-08-17T01:39:53.793Z,4.53
2022-08-17T01:42:49.058Z,4.45
2022-08-17T01:45:20.022Z,4.57
2022-08-17T01:47:47.764Z,4.25
2022-08-17T01:50:18.157Z,4.07
2022-08-17T01:52:51.007Z,4.72
2022-08-17T01:55:21.526Z,4.37
2022-08-17T01:57:54.261Z,4.55
2022-08-17T02:00:22.029Z,4.60
2022-08-17T02:02:49.933Z,4.15
2022-08-17T02:05:18.176Z,4.32
2022-08-17T02:07:59.345Z,4.85
2022-08-17T02:10:34.007Z,4.82
2022-08-17T02:13:03.456Z,4.70
2022-08-17T02:15:31.426Z,4.65
2022-08-17T02:17:59.199Z,4.97
2022-08-17T02:20:41.877Z,5.28
2022-08-17T02:23:12.031Z,5.10
2022-08-17T02:25:40.215Z,4.82
2022-08-17T02:28:11.043Z,4.57
2022-08-17T02:31:00.836Z,4.65
2022-08-17T02:33:41.728Z,4.80
2022-08-17T02:36:10.380Z,4.45
2022-08-17T02:38:38.946Z,4.68
2022-08-17T02:41:06.838Z,5.03
2022-08-17T02:43:34.692Z,5.35
2022-08-17T02:46:02.445Z,4.80
2022-08-17T02:48:31.186Z,5.15
2022-08-17T02:51:01.889Z,5.55
2022-08-17T02:53:35.882Z,5.07
2022-08-17T02:56:04.286Z,5.15
2022-08-17T02:58:34.991Z,5.43
2022-08-17T03:01:05.303Z,5.37
2022-08-17T03:03:33.137Z,5.10
2022-08-17T03:06:00.869Z,5.10
2022-08-17T03:08:28.624Z,4.87
2022-08-17T03:11:01.711Z,5.90
2022-08-17T03:13:29.592Z,6.00
2022-08-17T03:15:57.662Z,6.03
2022-08-17T03:18:27.884Z,5.55
2022-08-17T03:20:56.785Z,5.53
2022-08-17T03:23:30.399Z,5.15
2022-08-17T03:25:58.321Z,6.18
2022-08-17T03:28:26.402Z,5.30
2022-08-17T03:30:54.186Z,4.87
2022-08-17T03:33:21.991Z,4.97
2022-08-17T03:35:49.830Z,4.90
2022-08-17T03:38:20.106Z,5.00
2022-08-17T03:40:56.412Z,5.05
2022-08-17T03:43:26.376Z,4.40
2022-08-17T03:46:28.100Z,4.03
2022-08-17T03:49:19.078Z,4.30
2022-08-17T03:52:05.493Z,4.70
2022-08-17T03:54:52.092Z,4.60
2022-08-17T03:57:24.808Z,3.95
2022-08-17T03:59:53.937Z,4.18
2022-08-17T04:02:24.389Z,5.07
2022-08-17T04:04:52.473Z,4.03
2022-08-17T04:07:21.348Z,4.43
2022-08-17T04:09:49.124Z,4.53
2022-08-17T04:12:18.087Z,4.70
2022-08-17T04:14:53.699Z,4.97
2022-08-17T04:17:27.521Z,4.72
2022-08-17T04:19:58.515Z,5.18
2022-08-17T04:22:33.378Z,4.78
2022-08-17T04:25:20.001Z,4.95
2022-08-17T04:27:52.724Z,4.45
2022-08-17T04:30:20.612Z,4.37
2022-08-17T04:33:04.895Z,4.30
2022-08-17T04:35:42.239Z,4.68
2022-08-17T04:38:26.371Z,4.25
2022-08-17T04:41:15.945Z,4.97
2022-08-17T04:43:44.617Z,4.80
2022-08-17T04:46:15.719Z,4.80
2022-08-17T04:48:54.333Z,4.82
2022-08-17T04:51:49.678Z,4.50
2022-08-17T04:54:24.184Z,4.47
2022-08-17T04:56:56.934Z,4.37
2022-08-17T04:59:27.406Z,4.70
2022-08-17T05:01:55.824Z,4.50
2022-08-17T05:04:34.287Z,4.68
2022-08-17T05:07:06.111Z,4.78
2022-08-17T05:09:33.860Z,4.12
2022-08-17T05:12:05.259Z,4.43
2022-08-17T05:14:33.954Z,4.35
2022-08-17T05:17:07.027Z,5.20
2022-08-17T05:19:39.983Z,4.47
2022-08-17T05:22:10.717Z,4.62
2022-08-17T05:24:43.468Z,4.55
2022-08-17T05:27:21.070Z,4.45
2022-08-17T05:29:51.324Z,4.87
2022-08-17T05:32:38.257Z,4.28
2022-08-17T05:35:08.245Z,4.70
2022-08-17T05:37:36.009Z,5.20
2022-08-17T05:40:11.516Z,3.72
2022-08-17T05:42:39.323Z,3.50
2022-08-17T05:45:07.979Z,4.35
2022-08-17T05:47:45.258Z,4.45
2022-08-17T05:50:32.961Z,3.67
2022-08-17T05:53:12.295Z,3.78
2022-08-17T05:56:29.156Z,3.72
2022-08-17T05:59:09.215Z,3.45
2022-08-17T06:01:58.858Z,3.78
2022-08-17T06:04:32.293Z,3.92
2022-08-17T06:07:28.854Z,3.83
2022-08-17T06:10:05.117Z,3.28
2022-08-17T06:13:01.173Z,3.22
2022-08-17T06:16:32.930Z,3.10
2022-08-17T06:19:35.065Z,3.60
2022-08-17T06:22:05.184Z,3.15
2022-08-17T06:24:42.284Z,3.47
2022-08-17T06:27:31.394Z,3.53
2022-08-17T06:30:05.235Z,3.58
2022-08-17T06:32:33.193Z,3.17
2022-08-17T06:35:01.556Z,3.45
2022-08-17T06:37:38.321Z,3.40
2022-08-17T06:40:21.494Z,3.60
2022-08-17T06:43:17.064Z,3.60
2022-08-17T06:45:50.265Z,3.20
2022-08-17T06:49:11.553Z,3.03
2022-08-17T06:51:44.732Z,3.60
2022-08-17T06:54:26.607Z,3.70
2022-08-17T06:57:07.564Z,3.40
2022-08-17T06:59:59.898Z,3.45
2022-08-17T07:02:51.521Z,3.53
2022-08-17T07:05:49.608Z,3.28
2022-08-17T07:08:58.518Z,3.37
2022-08-17T07:11:33.233Z,3.70
2022-08-17T07:14:17.508Z,3.50
2022-08-17T07:17:18.309Z,3.12
2022-08-17T07:19:49.716Z,3.60
2022-08-17T07:22:26.300Z,3.58
2022-08-17T07:24:59.443Z,3.12
2022-08-17T07:27:29.723Z,3.50
2022-08-17T07:30:06.765Z,3.70
2022-08-17T07:32:49.008Z,3.65
2022-08-17T07:35:31.228Z,3.40
2022-08-17T07:38:31.755Z,3.35
2022-08-17T07:41:03.566Z,3.20
2022-08-17T07:43:57.808Z,3.00
2022-08-17T07:46:44.987Z,3.35
2022-08-17T07:49:15.932Z,3.30
2022-08-17T07:51:43.702Z,3.08
2022-08-17T07:54:17.740Z,3.12
2022-08-17T07:56:56.411Z,3.50
2022-08-17T07:59:33.695Z,2.62
2022-08-17T08:02:07.237Z,2.92
2022-08-17T08:07:29.743Z,3.30
2022-08-17T08:10:01.730Z,2.80
2022-08-17T08:12:34.613Z,2.83
2022-08-17T08:15:10.537Z,3.00
2022-08-17T08:17:53.157Z,3.00
2022-08-17T08:20:52.763Z,3.00
2022-08-17T08:23:43.317Z,2.92
2022-08-17T08:26:29.821Z,3.28
2022-08-17T08:29:42.410Z,3.30
2022-08-17T08:32:20.723Z,3.20
2022-08-17T08:35:02.511Z,3.40
2022-08-17T08:37:43.337Z,3.28
2022-08-17T08:40:38.249Z,3.30
2022-08-17T08:43:42.119Z,3.12
2022-08-17T08:46:19.650Z,3.37
2022-08-17T08:49:12.438Z,3.30
2022-08-17T08:52:00.013Z,3.62
2022-08-17T08:54:36.559Z,2.95
2022-08-17T08:57:42.669Z,3.40
2022-08-17T09:00:24.403Z,3.05
2022-08-17T09:03:01.466Z,3.30
2022-08-17T09:05:56.071Z,3.12
2022-08-17T09:08:54.935Z,3.17
2022-08-17T09:11:32.231Z,3.05
2022-08-17T09:14:05.976Z,2.85
2022-08-17T09:17:14.035Z,2.90
2022-08-17T09:19:46.507Z,3.03
2022-08-17T09:22:35.512Z,3.65
2022-08-17T09:25:29.620Z,3.45
2022-08-17T09:28:08.913Z,3.10
2022-08-17T09:30:46.633Z,3.03
2022-08-17T09:33:18.355Z,3.08
2022-08-17T09:36:00.145Z,3.40
2022-08-17T09:38:52.194Z,3.08
2022-08-17T09:41:48.593Z,3.62
2022-08-17T09:44:57.986Z,3.58
2022-08-17T09:47:33.203Z,3.78
2022-08-17T09:50:06.232Z,3.33
2022-08-17T09:52:34.221Z,3.50
2022-08-17T09:55:03.002Z,3.37
2022-08-17T09:57:32.199Z,3.28
2022-08-17T10:00:32.522Z,3.30
2022-08-17T10:03:17.606Z,3.00
2022-08-17T10:05:57.245Z,3.50
2022-08-17T10:08:33.757Z,3.12
2022-08-17T10:11:15.807Z,3.22
2022-08-17T10:13:59.534Z,3.05
2022-08-17T10:16:42.459Z,3.30
2022-08-17T10:19:16.818Z,3.37
2022-08-17T10:22:32.362Z,3.95
2022-08-17T10:25:23.480Z,3.17
2022-08-17T10:27:56.778Z,3.45
2022-08-17T10:30:29.760Z,3.65
2022-08-17T10:33:03.156Z,3.22
2022-08-17T10:35:39.841Z,3.12
2022-08-17T10:38:38.405Z,3.03
2022-08-17T10:41:25.483Z,2.90
2022-08-17T10:44:39.608Z,2.85
2022-08-17T10:47:19.483Z,3.22
2022-08-17T10:49:57.188Z,2.92
2022-08-17T10:52:25.247Z,3.40
2022-08-17T10:54:58.328Z,3.20
2022-08-17T10:57:38.507Z,2.70
2022-08-17T11:00:17.064Z,3.03
2022-08-17T11:02:58.617Z,2.90
2022-08-17T11:05:55.193Z,3.37
2022-08-17T11:08:32.337Z,3.03
2022-08-17T11:11:14.626Z,2.97
2022-08-17T11:14:00.680Z,3.28
2022-08-17T11:17:07.549Z,3.40
2022-08-17T11:19:40.329Z,3.15
2022-08-17T11:22:33.502Z,3.00
2022-08-17T11:25:24.232Z,2.75
2022-08-17T11:27:54.805Z,3.10
2022-08-17T11:30:48.707Z,2.80
2022-08-17T11:33:38.279Z,3.03
2022-08-17T11:36:15.748Z,3.00
2022-08-17T11:39:06.373Z,2.60
2022-08-17T11:41:58.296Z,2.80
2022-08-17T11:44:57.682Z,2.80
2022-08-17T11:48:15.917Z,2.58
2022-08-17T11:51:12.163Z,2.62
2022-08-17T11:53:40.389Z,3.00
2022-08-17T11:56:32.986Z,3.12
2022-08-17T11:59:01.944Z,2.70
2022-08-17T12:01:48.152Z,2.97
2022-08-17T12:04:28.920Z,2.62
2022-08-17T12:07:00.984Z,2.58
2022-08-17T12:09:35.887Z,2.40
2022-08-17T12:12:15.871Z,2.70
2022-08-17T12:17:42.670Z,2.67
2022-08-17T12:20:38.409Z,2.45
2022-08-17T12:23:13.937Z,2.42
2022-08-17T12:25:57.896Z,2.35
2022-08-17T12:28:33.833Z,2.83
2022-08-17T12:31:05.595Z,2.58
2022-08-17T12:33:38.011Z,2.65
2022-08-17T12:36:15.988Z,2.60
2022-08-17T12:38:59.185Z,2.72
2022-08-17T12:41:52.008Z,2.30
2022-08-17T12:44:31.576Z,2.75
2022-08-17T12:47:08.251Z,2.72
2022-08-17T12:49:40.527Z,2.53
2022-08-17T12:52:21.297Z,2.70
2022-08-17T12:54:54.773Z,2.70
2022-08-17T12:57:34.084Z,2.65
2022-08-17T13:00:30.496Z,2.55
2022-08-17T13:03:07.189Z,2.47
2022-08-17T13:06:01.921Z,2.50
2022-08-17T13:08:39.695Z,2.70
2022-08-17T13:11:19.461Z,2.40
2022-08-17T13:13:55.976Z,2.75
2022-08-17T13:16:32.011Z,2.60
2022-08-17T13:19:14.037Z,2.58
2022-08-17T13:21:53.750Z,2.37
2022-08-17T13:24:47.180Z,2.53
2022-08-17T13:27:21.087Z,2.90
2022-08-17T13:29:54.621Z,2.65
2022-08-17T13:32:48.313Z,2.83
2022-08-17T13:35:47.100Z,2.50
2022-08-17T13:38:40.607Z,2.67
2022-08-17T13:41:32.496Z,2.50
2022-08-17T13:44:19.818Z,3.37
2022-08-17T13:46:55.912Z,2.92
2022-08-17T13:49:48.086Z,2.80
2022-08-17T13:52:52.577Z,2.50
2022-08-17T13:55:28.004Z,2.62
2022-08-17T13:58:06.634Z,2.90
2022-08-17T14:00:41.926Z,2.58
2022-08-17T14:03:09.922Z,2.75
2022-08-17T14:05:39.895Z,2.60
2022-08-17T14:08:12.810Z,3.10
2022-08-17T14:10:40.702Z,3.10
2022-08-17T14:13:12.313Z,3.15
2022-08-17T14:15:54.868Z,3.15
2022-08-17T14:18:56.870Z,3.08
2022-08-17T14:21:27.783Z,2.90
2022-08-17T14:23:59.338Z,2.75
2022-08-17T14:26:34.808Z,3.25
2022-08-17T14:29:02.944Z,3.08
2022-08-17T14:31:35.444Z,2.75
2022-08-17T14:34:06.210Z,2.67
2022-08-17T14:36:34.181Z,3.00
2022-08-17T14:39:06.761Z,2.72
2022-08-17T14:41:34.784Z,2.90
2022-08-17T14:44:02.828Z,2.92
2022-08-17T14:46:31.008Z,3.25
2022-08-17T14:49:04.052Z,3.45
2022-08-17T14:51:32.093Z,3.10
2022-08-17T14:54:07.046Z,3.05
2022-08-17T14:56:38.678Z,3.05
2022-08-17T14:59:09.341Z,3.17
2022-08-17T15:01:44.504Z,3.20
2022-08-17T15:04:19.835Z,3.37
2022-08-17T15:06:52.972Z,3.20
2022-08-17T15:09:23.847Z,3.25
2022-08-17T15:11:54.839Z,3.33
2022-08-17T15:14:22.979Z,2.95
2022-08-17T15:16:55.656Z,3.15
2022-08-17T15:19:29.293Z,2.85
2022-08-17T15:21:57.239Z,3.28
2022-08-17T15:24:25.095Z,3.17
2022-08-17T15:26:53.209Z,3.35
2022-08-17T15:29:25.954Z,3.10
2022-08-17T15:31:58.691Z,3.10
2022-08-17T15:34:28.523Z,3.25
2022-08-17T15:37:01.683Z,3.50
2022-08-17T15:39:29.957Z,3.53
2022-08-17T15:41:58.548Z,3.30
2022-08-17T15:44:34.835Z,3.33
2022-08-17T15:47:11.187Z,3.50
2022-08-17T15:49:41.746Z,3.58
2022-08-17T15:52:19.873Z,3.53
2022-08-17T15:54:58.643Z,3.67
2022-08-17T15:57:28.890Z,3.65
2022-08-17T16:00:01.811Z,3.20
2022-08-17T16:03:46.253Z,3.37
2022-08-17T16:05:31.728Z,3.10
2022-08-17T16:08:00.839Z,3.25
2022-08-17T16:10:35.187Z,3.85
2022-08-17T16:13:17.155Z,3.47
2022-08-17T16:15:51.122Z,3.65
2022-08-17T16:18:32.474Z,3.47
2022-08-17T16:21:43.228Z,3.67
2022-08-17T16:24:15.006Z,3.85
2022-08-17T16:26:45.984Z,3.33
2022-08-17T16:29:17.009Z,3.62
2022-08-17T16:31:49.304Z,3.00
2022-08-17T16:34:18.659Z,4.00
2022-08-17T16:36:54.836Z,3.33
2022-08-17T16:39:24.465Z,3.10
2022-08-17T16:41:54.953Z,3.10
2022-08-17T16:44:28.173Z,3.53
2022-08-17T16:47:02.202Z,3.53
2022-08-17T16:49:36.941Z,3.33
2022-08-17T16:52:11.291Z,3.65
2022-08-17T16:54:48.051Z,3.97
2022-08-17T16:57:17.143Z,3.72
2022-08-17T16:59:48.117Z,3.53
2022-08-17T17:02:40.436Z,3.42
2022-08-17T17:05:57.704Z,3.30
2022-08-17T17:08:53.447Z,3.97
2022-08-17T17:11:53.884Z,3.90
2022-08-17T17:14:24.065Z,4.05
2022-08-17T17:17:04.886Z,3.90
2022-08-17T17:19:42.945Z,4.62
2022-08-17T17:22:18.067Z,3.58
2022-08-17T17:25:15.581Z,2.92
2022-08-17T17:28:20.687Z,2.90
2022-08-17T17:31:07.283Z,3.33
2022-08-17T17:33:50.073Z,3.08
2022-08-17T17:36:34.941Z,3.20
2022-08-17T17:39:10.968Z,3.03
2022-08-17T17:41:43.345Z,3.10
2022-08-17T17:44:15.261Z,3.15
2022-08-17T17:46:55.947Z,3.55
2022-08-17T17:49:28.503Z,2.90
2022-08-17T17:52:40.274Z,3.15
2022-08-17T17:55:30.786Z,3.17
2022-08-17T17:58:34.591Z,3.35
2022-08-17T18:01:21.196Z,3.10
2022-08-17T18:04:00.648Z,3.12
2022-08-17T18:06:46.692Z,3.33
2022-08-17T18:09:20.527Z,2.85
2022-08-17T18:12:11.736Z,3.30
2022-08-17T18:15:00.911Z,3.00
2022-08-17T18:17:32.253Z,3.40
2022-08-17T18:20:00.341Z,3.30
2022-08-17T18:22:36.280Z,3.08
2022-08-17T18:25:06.840Z,2.95
2022-08-17T18:27:40.824Z,3.25
2022-08-17T18:30:14.572Z,3.35
2022-08-17T18:32:47.624Z,2.95
2022-08-17T18:35:30.336Z,2.87
2022-08-17T18:38:22.993Z,3.05
2022-08-17T18:41:31.538Z,2.87
2022-08-17T18:44:06.556Z,3.10
2022-08-17T18:46:37.992Z,3.37
2022-08-17T18:49:26.890Z,2.80
2022-08-17T18:52:11.203Z,3.00
2022-08-17T18:54:44.265Z,3.33
2022-08-17T18:57:12.162Z,3.03
2022-08-17T18:59:49.535Z,2.70
2022-08-17T19:02:43.419Z,3.10
2022-08-17T19:05:41.187Z,3.05
2022-08-17T19:08:22.019Z,2.33
2022-08-17T19:10:56.061Z,3.08
2022-08-17T19:13:33.580Z,2.62
2022-08-17T19:16:26.355Z,3.03
2022-08-17T19:19:13.655Z,2.80
2022-08-17T19:22:07.788Z,2.70
2022-08-17T19:24:45.254Z,2.97
2022-08-17T19:27:19.536Z,2.92
2022-08-17T19:29:56.489Z,3.00
2022-08-17T19:32:27.688Z,3.22
2022-08-17T19:34:56.430Z,2.70
2022-08-17T19:38:01.940Z,2.97
2022-08-17T19:40:53.585Z,2.78
2022-08-17T19:43:48.386Z,2.95
2022-08-17T19:46:30.712Z,2.80
2022-08-17T19:49:05.904Z,2.80
2022-08-17T19:51:48.043Z,3.33
2022-08-17T19:54:35.016Z,3.50
2022-08-17T19:57:11.557Z,2.78
2022-08-17T19:59:55.509Z,3.25
2022-08-17T20:02:32.117Z,2.75
2022-08-17T20:05:08.621Z,3.10
2022-08-17T20:08:02.965Z,2.87
2022-08-17T20:10:39.498Z,2.92
2022-08-17T20:13:15.337Z,3.15
2022-08-17T20:15:45.621Z,2.90
2022-08-17T20:18:20.761Z,3.00
2022-08-17T20:20:56.953Z,3.10
2022-08-17T20:23:36.942Z,3.17
2022-08-17T20:26:20.185Z,3.25
2022-08-17T20:29:08.828Z,3.17
2022-08-17T20:31:46.611Z,3.50
2022-08-17T20:34:38.185Z,3.20
2022-08-17T20:37:25.537Z,3.53
2022-08-17T20:39:56.035Z,2.87
2022-08-17T20:42:23.815Z,3.30
2022-08-17T20:45:06.552Z,3.35
2022-08-17T20:48:07.783Z,3.50
2022-08-17T20:50:46.584Z,3.12
2022-08-17T20:53:54.613Z,3.47
2022-08-17T20:56:50.400Z,3.00
2022-08-17T20:59:27.060Z,3.35
2022-08-17T21:02:17.673Z,2.92
2022-08-17T21:05:06.958Z,2.60
2022-08-17T21:07:43.489Z,2.80
2022-08-17T21:10:29.310Z,2.58
2022-08-17T21:13:09.677Z,2.53
2022-08-17T21:15:48.075Z,2.70
2022-08-17T21:18:39.895Z,2.67
2022-08-17T21:21:20.575Z,2.22
2022-08-17T21:24:23.089Z,2.75
2022-08-17T21:27:38.532Z,2.72
2022-08-17T21:30:10.002Z,2.60
2022-08-17T21:33:06.330Z,2.87
2022-08-17T21:35:48.492Z,3.05
2022-08-17T21:38:19.352Z,2.75
2022-08-17T21:40:51.641Z,2.67
2022-08-17T21:43:37.615Z,2.22
2022-08-17T21:46:14.673Z,2.40
2022-08-17T21:48:48.342Z,2.72
2022-08-17T21:51:22.216Z,2.67
2022-08-17T21:56:42.214Z,2.65
2022-08-17T21:59:28.442Z,2.35
2022-08-17T22:01:58.730Z,2.40
2022-08-17T22:04:33.449Z,2.53
2022-08-17T22:07:07.863Z,2.60
2022-08-17T22:09:43.746Z,2.65
2022-08-17T22:12:15.656Z,2.65
2022-08-17T22:14:53.962Z,2.78
2022-08-17T22:17:51.635Z,2.25
2022-08-17T22:20:20.303Z,2.30
2022-08-17T22:23:09.766Z,2.92
2022-08-17T22:25:54.322Z,2.67
2022-08-17T22:28:44.248Z,2.55
2022-08-17T22:31:14.474Z,2.70
2022-08-17T22:33:50.680Z,3.17
2022-08-17T22:36:31.298Z,2.83
2022-08-17T22:39:21.785Z,3.00
2022-08-17T22:41:52.936Z,2.90
2022-08-17T22:44:38.631Z,3.10
2022-08-17T22:47:19.940Z,2.92
2022-08-17T22:49:54.125Z,3.00
2022-08-17T22:52:35.572Z,2.95
2022-08-17T22:55:33.700Z,3.20
2022-08-17T22:58:20.352Z,3.05
2022-08-17T23:00:54.429Z,3.50
2022-08-17T23:03:26.827Z,3.30
2022-08-17T23:06:14.653Z,3.65
2022-08-17T23:09:00.574Z,3.55
2022-08-17T23:11:49.774Z,3.30
2022-08-17T23:14:20.891Z,3.37
2022-08-17T23:16:54.893Z,2.78
2022-08-17T23:19:33.381Z,3.70
2022-08-17T23:22:02.107Z,3.40
2022-08-17T23:24:31.668Z,3.35
2022-08-17T23:27:00.094Z,2.92
2022-08-17T23:29:30.800Z,2.95
2022-08-17T23:32:00.782Z,3.25
2022-08-17T23:34:29.138Z,3.28
2022-08-17T23:37:01.789Z,3.15
2022-08-17T23:39:37.707Z,3.30
2022-08-17T23:42:10.810Z,3.20
2022-08-17T23:44:42.703Z,3.00
2022-08-17T23:47:11.232Z,3.22
2022-08-17T23:49:39.836Z,3.33
2022-08-17T23:52:08.963Z,3.17
2022-08-17T23:54:44.936Z,3.22
2022-08-17T23:57:19.985Z,3.03
